Time;durP1;ratioP1;P1;durP2;ratioP2;P2;SDS_P1;SDS_P2;PMS_P1;PMS_P2;Temp;Humidity;BMP_temperature;BMP_pressure;BME280_temperature;BME280_humidity;BME280_pressure;Samples;Min_cycle;Max_cycle;Signal;HPM_P1;HPM_P2
2023/07/26 00:00:02;;;;;;;;;;;10.30;99.90;;;;;;5098365;28;20356;-85
2023/07/26 00:02:39;;;;;;;;;;;10.30;99.90;;;;;;5054788;28;19909;-85
2023/07/26 00:05:04;;;;;;;;;;;10.20;99.90;;;;;;5036812;28;19932;-85
2023/07/26 00:07:30;;;;;;;;;;;10.20;99.90;;;;;;5036530;28;19916;-85
2023/07/26 00:09:55;;;;;;;;;;;10.30;99.90;;;;;;5036668;28;20327;-85
2023/07/26 00:12:21;;;;;;;;;;;10.20;99.90;;;;;;5036332;28;19988;-85
2023/07/26 00:15:12;;;;;;;;;;;10.20;99.90;;;;;;5052705;28;19923;-86
2023/07/26 00:17:37;;;;;;;;;;;10.20;99.90;;;;;;5069222;28;19919;-85
2023/07/26 00:20:03;;;;;;;;;;;10.20;99.90;;;;;;5052875;28;19909;-85
2023/07/26 00:22:29;;;;;;;;;;;10.20;99.90;;;;;;5052667;28;19994;-86
2023/07/26 00:24:54;;;;;;;;;;;10.20;99.90;;;;;;5035954;28;19909;-86
2023/07/26 00:27:20;;;;;;;;;;;10.20;99.90;;;;;;5035860;28;20340;-85
2023/07/26 00:29:45;;;;;;;;;;;10.10;99.90;;;;;;5052362;28;20352;-85
2023/07/26 00:32:11;;;;;;;;;;;10.10;99.90;;;;;;5036290;28;19987;-86
2023/07/26 00:34:36;;;;;;;;;;;10.10;99.90;;;;;;5035825;28;19970;-85
2023/07/26 00:37:03;;;;;;;;;;;10.10;99.90;;;;;;5036095;28;20004;-85
2023/07/26 00:39:29;;;;;;;;;;;10.20;99.90;;;;;;5052563;28;19908;-85
2023/07/26 00:41:55;;;;;;;;;;;10.20;99.90;;;;;;5036872;28;20269;-85
2023/07/26 00:44:51;;;;;;;;;;;10.10;99.90;;;;;;5052803;28;20301;-85
2023/07/26 00:47:17;;;;;;;;;;;10.10;99.90;;;;;;5032486;28;20367;-85
2023/07/26 00:49:43;;;;;;;;;;;10.20;99.90;;;;;;5052229;28;19909;-86
2023/07/26 00:52:10;;;;;;;;;;;10.10;99.90;;;;;;5036132;28;19905;-85
2023/07/26 00:54:36;;;;;;;;;;;10.10;99.90;;;;;;5052305;28;19909;-85
2023/07/26 00:57:01;;;;;;;;;;;10.10;99.90;;;;;;5035206;28;19920;-86
2023/07/26 00:59:28;;;;;;;;;;;10.20;99.90;;;;;;5052128;28;19916;-85
2023/07/26 01:01:54;;;;;;;;;;;10.10;99.90;;;;;;5036723;28;19909;-85
2023/07/26 01:04:20;;;;;;;;;;;10.10;99.90;;;;;;5054489;28;19938;-85
2023/07/26 01:06:52;;;;;;;;;;;10.20;99.90;;;;;;5052620;28;19909;-85
2023/07/26 01:09:24;;;;;;;;;;;10.10;99.90;;;;;;5036500;28;19916;-85
2023/07/26 01:11:57;;;;;;;;;;;10.10;99.90;;;;;;5035936;28;19920;-85
2023/07/26 01:14:35;;;;;;;;;;;10.10;99.90;;;;;;5036168;28;20310;-86
2023/07/26 01:17:00;;;;;;;;;;;10.10;99.90;;;;;;5061183;28;19917;-84
2023/07/26 01:19:26;;;;;;;;;;;10.10;99.90;;;;;;5052526;28;19909;-85
2023/07/26 01:21:52;;;;;;;;;;;10.10;99.90;;;;;;5051973;28;19905;-85
2023/07/26 01:24:17;;;;;;;;;;;10.10;99.90;;;;;;5052104;28;19913;-86
2023/07/26 01:26:43;;;;;;;;;;;10.20;99.90;;;;;;5051877;28;20015;-85
2023/07/26 01:29:09;;;;;;;;;;;10.20;99.90;;;;;;5052374;28;19909;-86
2023/07/26 01:31:35;;;;;;;;;;;10.10;99.90;;;;;;5053604;28;19992;-85
2023/07/26 01:34:09;;;;;;;;;;;10.10;99.90;;;;;;5053375;28;19991;-85
2023/07/26 01:36:35;;;;;;;;;;;10.10;99.90;;;;;;5035750;28;20499;-85
2023/07/26 01:39:01;;;;;;;;;;;10.10;99.90;;;;;;5052468;28;19920;-86
2023/07/26 01:41:28;;;;;;;;;;;10.10;99.90;;;;;;5052129;28;19909;-86
2023/07/26 01:43:53;;;;;;;;;;;10.10;99.90;;;;;;5035183;28;20268;-86
2023/07/26 01:46:19;;;;;;;;;;;10.10;99.90;;;;;;5052148;28;19908;-85
2023/07/26 01:48:44;;;;;;;;;;;10.10;99.90;;;;;;5035109;28;19913;-86
2023/07/26 01:51:12;;;;;;;;;;;10.10;99.90;;;;;;5085125;28;19973;-85
2023/07/26 01:53:38;;;;;;;;;;;10.10;99.90;;;;;;5051364;28;19909;-86
2023/07/26 01:56:04;;;;;;;;;;;10.10;99.90;;;;;;5036891;28;19915;-85
2023/07/26 01:58:30;;;;;;;;;;;10.10;99.90;;;;;;5038857;28;19917;-86
2023/07/26 02:00:55;;;;;;;;;;;10.10;99.90;;;;;;5055356;28;19915;-86
2023/07/26 02:03:21;;;;;;;;;;;10.20;99.90;;;;;;5055472;28;19908;-85
2023/07/26 02:05:47;;;;;;;;;;;10.20;99.90;;;;;;5055519;28;19912;-85
2023/07/26 02:08:13;;;;;;;;;;;10.20;99.90;;;;;;5055548;28;20328;-85
2023/07/26 02:10:39;;;;;;;;;;;10.30;99.90;;;;;;5055241;28;19909;-86
2023/07/26 02:13:04;;;;;;;;;;;10.40;99.90;;;;;;5038837;28;19905;-85
2023/07/26 02:15:31;;;;;;;;;;;10.30;99.90;;;;;;5055313;28;20264;-86
2023/07/26 02:17:56;;;;;;;;;;;10.30;99.90;;;;;;5054866;28;19913;-85
2023/07/26 02:20:22;;;;;;;;;;;10.30;99.90;;;;;;5055241;28;20019;-85
2023/07/26 02:22:48;;;;;;;;;;;10.40;99.90;;;;;;5038449;28;20323;-86
2023/07/26 02:25:13;;;;;;;;;;;10.50;99.90;;;;;;5055484;28;19955;-86
2023/07/26 02:27:40;;;;;;;;;;;10.60;99.90;;;;;;5038747;28;20283;-86
2023/07/26 02:30:05;;;;;;;;;;;10.60;99.90;;;;;;5088363;28;19908;-85
2023/07/26 02:33:05;;;;;;;;;;;10.60;99.90;;;;;;5038750;28;19916;-86
2023/07/26 02:35:31;;;;;;;;;;;10.60;99.90;;;;;;5046396;28;19970;-85
2023/07/26 02:37:56;;;;;;;;;;;10.60;99.90;;;;;;5038264;28;19913;-85
2023/07/26 02:40:23;;;;;;;;;;;10.60;99.90;;;;;;5038734;28;19915;-86
2023/07/26 02:42:49;;;;;;;;;;;10.60;99.90;;;;;;5038261;28;20279;-86
2023/07/26 02:45:14;;;;;;;;;;;10.70;99.90;;;;;;5055429;28;20629;-86
2023/07/26 02:47:40;;;;;;;;;;;10.60;99.90;;;;;;5038299;28;19916;-86
2023/07/26 02:50:06;;;;;;;;;;;10.70;99.90;;;;;;5054931;28;19916;-85
2023/07/26 02:52:33;;;;;;;;;;;10.80;99.90;;;;;;5038281;28;19909;-85
2023/07/26 02:58:27;;;;;;;;;;;10.80;99.90;;;;;;5050104;28;19967;-86
2023/07/26 03:00:53;;;;;;;;;;;10.80;99.90;;;;;;5054050;28;19909;-85
2023/07/26 03:03:19;;;;;;;;;;;10.70;99.90;;;;;;5071192;28;20003;-86
2023/07/26 03:05:45;;;;;;;;;;;10.80;99.90;;;;;;5071041;28;20326;-86
2023/07/26 03:08:10;;;;;;;;;;;10.70;99.90;;;;;;5037411;28;19913;-85
2023/07/26 03:10:36;;;;;;;;;;;10.70;99.90;;;;;;5038130;28;20256;-85
2023/07/26 03:13:01;;;;;;;;;;;10.80;99.90;;;;;;5037386;28;19999;-85
2023/07/26 03:15:27;;;;;;;;;;;10.80;99.90;;;;;;5037291;28;19915;-85
2023/07/26 03:17:52;;;;;;;;;;;10.80;99.90;;;;;;5037168;28;19913;-85
2023/07/26 03:20:18;;;;;;;;;;;10.80;99.90;;;;;;5054122;28;20686;-85
2023/07/26 03:22:43;;;;;;;;;;;10.90;99.90;;;;;;5037241;28;20002;-84
2023/07/26 03:25:09;;;;;;;;;;;10.90;99.90;;;;;;5053823;28;19919;-85
2023/07/26 03:27:35;;;;;;;;;;;10.80;99.90;;;;;;5054072;28;19909;-85
2023/07/26 03:30:00;;;;;;;;;;;10.80;99.90;;;;;;5054598;28;19920;-84
2023/07/26 03:32:26;;;;;;;;;;;10.80;99.90;;;;;;5037941;28;19908;-85
2023/07/26 03:34:51;;;;;;;;;;;10.80;99.90;;;;;;5061899;28;19916;-84
2023/07/26 03:37:17;;;;;;;;;;;10.80;99.90;;;;;;5049265;28;19917;-84
2023/07/26 03:39:42;;;;;;;;;;;10.80;99.90;;;;;;5068200;28;19904;-84
2023/07/26 03:42:08;;;;;;;;;;;10.80;99.90;;;;;;5063294;28;20031;-84
2023/07/26 03:44:33;;;;;;;;;;;10.80;99.90;;;;;;5054722;28;19909;-85
2023/07/26 03:46:59;;;;;;;;;;;10.80;99.90;;;;;;5035857;28;19952;-85
2023/07/26 03:49:25;;;;;;;;;;;10.80;99.90;;;;;;5049148;28;19908;-86
2023/07/26 03:51:50;;;;;;;;;;;10.90;99.90;;;;;;5034109;28;19991;-86
2023/07/26 03:54:16;;;;;;;;;;;10.80;99.90;;;;;;5037078;28;19954;-86
2023/07/26 03:56:41;;;;;;;;;;;10.80;99.90;;;;;;5036974;28;19909;-86
2023/07/26 03:59:07;;;;;;;;;;;10.90;99.90;;;;;;5036933;28;19913;-85
2023/07/26 04:01:33;;;;;;;;;;;10.80;99.90;;;;;;5037001;28;19970;-86
2023/07/26 04:03:58;;;;;;;;;;;10.80;99.90;;;;;;5053309;28;19904;-86
2023/07/26 04:06:24;;;;;;;;;;;10.80;99.90;;;;;;5036819;28;19913;-86
2023/07/26 04:08:50;;;;;;;;;;;10.80;99.90;;;;;;5036528;28;20011;-85
2023/07/26 04:11:15;;;;;;;;;;;10.80;99.90;;;;;;5036616;28;19909;-85
2023/07/26 04:13:41;;;;;;;;;;;10.80;99.90;;;;;;5036701;28;19913;-85
2023/07/26 04:16:19;;;;;;;;;;;10.80;99.90;;;;;;5053235;28;19915;-86
2023/07/26 04:18:45;;;;;;;;;;;10.90;99.90;;;;;;5065340;28;19912;-85
2023/07/26 04:21:15;;;;;;;;;;;10.90;99.90;;;;;;5054099;28;19935;-86
2023/07/26 04:23:44;;;;;;;;;;;11.00;99.90;;;;;;5053394;28;19958;-85
2023/07/26 04:26:10;;;;;;;;;;;10.90;99.90;;;;;;5036622;28;19938;-85
2023/07/26 04:28:35;;;;;;;;;;;11.00;99.90;;;;;;5087152;28;20677;-85
2023/07/26 04:31:02;;;;;;;;;;;11.10;99.90;;;;;;5036331;28;20425;-86
2023/07/26 04:33:28;;;;;;;;;;;11.10;99.90;;;;;;5036592;28;20432;-85
2023/07/26 04:35:54;;;;;;;;;;;11.10;99.90;;;;;;5053138;28;19912;-86
2023/07/26 04:38:19;;;;;;;;;;;11.10;99.90;;;;;;5036440;28;19913;-86
2023/07/26 04:40:48;;;;;;;;;;;11.10;99.90;;;;;;5036537;28;19989;-85
2023/07/26 04:43:16;;;;;;;;;;;11.00;99.90;;;;;;5052867;28;19920;-85
2023/07/26 04:46:00;;;;;;;;;;;11.10;99.90;;;;;;5036157;28;19905;-85
2023/07/26 04:48:25;;;;;;;;;;;11.10;99.90;;;;;;5069700;28;20288;-86
2023/07/26 04:50:51;;;;;;;;;;;11.10;99.90;;;;;;5052770;28;19908;-86
2023/07/26 04:53:32;;;;;;;;;;;11.10;99.90;;;;;;5052850;28;19911;-85
2023/07/26 04:55:57;;;;;;;;;;;11.10;99.90;;;;;;5036037;28;20011;-86
2023/07/26 04:58:23;;;;;;;;;;;11.00;99.90;;;;;;5036362;28;19944;-85
2023/07/26 05:00:54;;;;;;;;;;;11.00;99.90;;;;;;5036214;28;20570;-85
2023/07/26 05:03:42;;;;;;;;;;;11.00;99.90;;;;;;5069495;28;19949;-86
2023/07/26 05:06:10;;;;;;;;;;;11.10;99.90;;;;;;5067665;28;19958;-86
2023/07/26 05:08:35;;;;;;;;;;;11.10;99.90;;;;;;5052773;28;20279;-86
2023/07/26 05:11:01;;;;;;;;;;;11.00;99.90;;;;;;5052677;28;20003;-85
2023/07/26 05:13:26;;;;;;;;;;;11.00;99.90;;;;;;5035856;28;19974;-85
2023/07/26 05:15:52;;;;;;;;;;;11.10;99.90;;;;;;5052749;28;19912;-85
2023/07/26 05:18:17;;;;;;;;;;;11.00;99.90;;;;;;5035746;28;19966;-86
2023/07/26 05:20:43;;;;;;;;;;;11.10;99.90;;;;;;5052552;28;20291;-85
2023/07/26 05:23:09;;;;;;;;;;;11.10;99.90;;;;;;5036540;28;19952;-86
2023/07/26 05:25:34;;;;;;;;;;;11.30;99.90;;;;;;5036253;28;19908;-85
2023/07/26 05:28:00;;;;;;;;;;;11.30;99.90;;;;;;5035946;28;20360;-85
2023/07/26 05:30:25;;;;;;;;;;;11.50;99.90;;;;;;5055277;28;19904;-86
2023/07/26 05:32:51;;;;;;;;;;;11.40;99.90;;;;;;5040283;28;19935;-86
2023/07/26 05:35:17;;;;;;;;;;;11.40;99.90;;;;;;5056467;28;19909;-85
2023/07/26 05:37:42;;;;;;;;;;;11.50;99.90;;;;;;5056546;28;19938;-86
2023/07/26 05:40:08;;;;;;;;;;;11.60;99.90;;;;;;5056611;28;19954;-86
2023/07/26 05:42:34;;;;;;;;;;;11.70;99.90;;;;;;5039924;28;20382;-86
2023/07/26 05:45:00;;;;;;;;;;;11.80;99.90;;;;;;5090167;28;19927;-85
2023/07/26 05:47:26;;;;;;;;;;;11.90;99.90;;;;;;5056254;28;19909;-85
2023/07/26 05:49:51;;;;;;;;;;;12.00;99.90;;;;;;5056154;28;19916;-86
2023/07/26 05:52:18;;;;;;;;;;;12.10;99.90;;;;;;5039740;28;19921;-86
2023/07/26 05:54:44;;;;;;;;;;;12.10;99.90;;;;;;5040090;28;19908;-85
2023/07/26 05:57:09;;;;;;;;;;;12.10;99.90;;;;;;5056013;28;19944;-86
2023/07/26 05:59:35;;;;;;;;;;;12.00;99.90;;;;;;5039851;28;19908;-85
2023/07/26 06:02:00;;;;;;;;;;;12.00;99.90;;;;;;5039189;28;20392;-86
2023/07/26 06:04:29;;;;;;;;;;;12.00;99.90;;;;;;5039492;28;19966;-85
2023/07/26 06:06:55;;;;;;;;;;;11.90;99.90;;;;;;5055936;28;19915;-86
2023/07/26 06:09:21;;;;;;;;;;;11.90;99.90;;;;;;5056127;28;19947;-86
2023/07/26 06:11:47;;;;;;;;;;;11.80;99.90;;;;;;5039384;28;19915;-85
2023/07/26 06:14:12;;;;;;;;;;;11.60;99.90;;;;;;5056145;28;20304;-86
2023/07/26 06:16:38;;;;;;;;;;;11.60;99.90;;;;;;5055607;28;19962;-86
2023/07/26 06:19:03;;;;;;;;;;;11.60;99.90;;;;;;5056811;28;19908;-86
2023/07/26 06:21:29;;;;;;;;;;;11.50;99.90;;;;;;5039004;28;19948;-86
2023/07/26 06:23:55;;;;;;;;;;;11.60;99.90;;;;;;5055709;28;19959;-86
2023/07/26 06:26:20;;;;;;;;;;;11.60;99.90;;;;;;5039262;28;20398;-86
2023/07/26 06:28:46;;;;;;;;;;;11.70;99.90;;;;;;5039092;28;19912;-85
2023/07/26 06:31:12;;;;;;;;;;;11.80;99.90;;;;;;5038755;28;19908;-85
2023/07/26 06:33:37;;;;;;;;;;;12.00;99.90;;;;;;5038666;28;20417;-86
2023/07/26 06:36:03;;;;;;;;;;;12.10;99.90;;;;;;5038539;28;20301;-86
2023/07/26 06:38:28;;;;;;;;;;;12.10;99.90;;;;;;5055260;28;20724;-85
2023/07/26 06:40:54;;;;;;;;;;;12.20;99.90;;;;;;5038079;28;20351;-86
2023/07/26 06:43:20;;;;;;;;;;;12.30;99.90;;;;;;5055500;28;20401;-85
2023/07/26 06:45:46;;;;;;;;;;;12.20;99.90;;;;;;5055050;28;19908;-86
2023/07/26 06:48:12;;;;;;;;;;;12.00;99.90;;;;;;5088870;28;19908;-86
2023/07/26 06:50:38;;;;;;;;;;;11.90;99.90;;;;;;5038770;28;19916;-86
2023/07/26 06:53:03;;;;;;;;;;;11.80;99.90;;;;;;5055358;28;19999;-86
2023/07/26 06:58:12;;;;;;;;;;;11.60;99.90;;;;;;5087579;28;20364;-85
2023/07/26 07:00:37;;;;;;;;;;;11.50;99.90;;;;;;5054160;28;19908;-84
2023/07/26 07:03:03;;;;;;;;;;;11.50;99.90;;;;;;5054334;28;19923;-84
2023/07/26 07:05:30;;;;;;;;;;;11.20;99.90;;;;;;5054330;28;19909;-84
2023/07/26 07:07:55;;;;;;;;;;;11.00;99.90;;;;;;5037654;28;19919;-84
2023/07/26 07:10:21;;;;;;;;;;;10.80;99.90;;;;;;5038144;28;19987;-85
2023/07/26 07:12:47;;;;;;;;;;;10.60;99.90;;;;;;5038677;28;19908;-85
2023/07/26 07:15:13;;;;;;;;;;;10.50;99.90;;;;;;5045752;28;19904;-85
2023/07/26 07:17:38;;;;;;;;;;;10.40;99.90;;;;;;5038477;28;20359;-84
2023/07/26 07:20:06;;;;;;;;;;;10.50;99.90;;;;;;5054862;28;19912;-85
2023/07/26 07:22:32;;;;;;;;;;;10.50;99.90;;;;;;5054946;28;19908;-86
2023/07/26 07:24:58;;;;;;;;;;;10.60;99.90;;;;;;5039553;28;20348;-86
2023/07/26 07:27:24;;;;;;;;;;;10.60;99.90;;;;;;5054245;28;19909;-85
2023/07/26 07:29:49;;;;;;;;;;;10.80;99.90;;;;;;5037370;28;20383;-86
2023/07/26 07:32:16;;;;;;;;;;;11.00;99.90;;;;;;5053896;28;19912;-86
2023/07/26 07:34:41;;;;;;;;;;;11.10;99.90;;;;;;5037367;28;20333;-85
2023/07/26 07:37:07;;;;;;;;;;;11.30;99.90;;;;;;5054348;28;19913;-85
2023/07/26 07:39:32;;;;;;;;;;;11.30;99.90;;;;;;5054018;28;19908;-85
2023/07/26 07:42:05;;;;;;;;;;;11.50;99.90;;;;;;5054117;28;19915;-86
2023/07/26 07:44:30;;;;;;;;;;;11.70;99.90;;;;;;5053970;28;19917;-85
2023/07/26 07:46:56;;;;;;;;;;;11.90;99.90;;;;;;5055048;28;19908;-85
2023/07/26 07:49:22;;;;;;;;;;;12.10;99.90;;;;;;5036949;28;19960;-85
2023/07/26 07:51:48;;;;;;;;;;;12.10;99.90;;;;;;5036922;28;20364;-86
2023/07/26 07:54:14;;;;;;;;;;;12.20;99.90;;;;;;5052576;28;19958;-85
2023/07/26 07:56:40;;;;;;;;;;;12.10;99.90;;;;;;5037226;28;19966;-85
2023/07/26 07:59:11;;;;;;;;;;;11.90;99.90;;;;;;5054053;28;20424;-85
2023/07/26 08:01:37;;;;;;;;;;;11.80;99.90;;;;;;5037108;28;19924;-85
2023/07/26 08:04:03;;;;;;;;;;;11.90;99.90;;;;;;5053862;28;19909;-85
2023/07/26 08:06:29;;;;;;;;;;;12.00;99.90;;;;;;5053892;28;19915;-85
2023/07/26 08:08:55;;;;;;;;;;;12.00;99.90;;;;;;5053316;28;19934;-85
2023/07/26 08:11:20;;;;;;;;;;;12.20;99.90;;;;;;5054070;28;20599;-85
2023/07/26 08:13:46;;;;;;;;;;;12.20;99.90;;;;;;5036633;28;19952;-85
2023/07/26 08:16:15;;;;;;;;;;;12.40;99.90;;;;;;5053152;28;19909;-85
2023/07/26 08:18:40;;;;;;;;;;;12.60;99.90;;;;;;5062001;28;19990;-86
2023/07/26 08:21:06;;;;;;;;;;;12.70;99.90;;;;;;5037471;28;20015;-85
2023/07/26 08:23:32;;;;;;;;;;;12.70;99.90;;;;;;5053708;28;20008;-85
2023/07/26 08:26:04;;;;;;;;;;;13.10;99.90;;;;;;5036163;28;20386;-85
2023/07/26 08:31:58;;;;;;;;;;;13.50;99.90;;;;;;5055306;28;19916;-86
2023/07/26 08:34:24;;;;;;;;;;;13.50;99.90;;;;;;5037086;28;19909;-86
2023/07/26 08:37:27;;;;;;;;;;;13.60;99.90;;;;;;5036403;28;19920;-86
2023/07/26 08:39:52;;;;;;;;;;;13.80;99.90;;;;;;5046884;28;19979;-86
2023/07/26 08:42:18;;;;;;;;;;;13.90;99.90;;;;;;5035667;28;20352;-86
2023/07/26 08:44:46;;;;;;;;;;;14.10;99.90;;;;;;5035377;28;19986;-86
2023/07/26 08:47:12;;;;;;;;;;;14.10;99.90;;;;;;5035708;28;20008;-86
2023/07/26 08:49:38;;;;;;;;;;;14.20;99.90;;;;;;5053843;28;19958;-85
2023/07/26 08:52:05;;;;;;;;;;;14.30;99.90;;;;;;5035601;28;19908;-85
2023/07/26 08:54:30;;;;;;;;;;;14.80;99.90;;;;;;5052265;28;19920;-86
2023/07/26 08:56:56;;;;;;;;;;;14.90;99.90;;;;;;5035705;28;20432;-86
2023/07/26 08:59:21;;;;;;;;;;;15.40;99.90;;;;;;5053591;28;19944;-86
2023/07/26 09:01:47;;;;;;;;;;;15.40;99.90;;;;;;5052441;28;19931;-86
2023/07/26 09:04:14;;;;;;;;;;;15.50;99.90;;;;;;5052629;28;19909;-86
2023/07/26 09:06:40;;;;;;;;;;;16.00;99.90;;;;;;5035811;28;19913;-86
2023/07/26 09:09:06;;;;;;;;;;;16.20;99.90;;;;;;5053072;28;20409;-86
2023/07/26 09:11:33;;;;;;;;;;;16.90;99.90;;;;;;5035483;28;20042;-85
2023/07/26 09:13:59;;;;;;;;;;;17.10;99.90;;;;;;5052875;28;19915;-86
2023/07/26 09:16:38;;;;;;;;;;;16.80;99.90;;;;;;5052205;28;19912;-86
2023/07/26 09:19:05;;;;;;;;;;;16.50;99.90;;;;;;5035967;28;19919;-86
2023/07/26 09:21:31;;;;;;;;;;;16.20;99.90;;;;;;5035545;28;20066;-87
2023/07/26 09:23:57;;;;;;;;;;;15.50;99.90;;;;;;5053631;28;19909;-85
2023/07/26 09:26:33;;;;;;;;;;;14.80;99.90;;;;;;5052732;28;19995;-86
2023/07/26 09:28:59;;;;;;;;;;;14.10;99.90;;;;;;5052303;28;19909;-86
2023/07/26 09:31:32;;;;;;;;;;;14.30;99.90;;;;;;5036984;28;19916;-86
2023/07/26 09:33:59;;;;;;;;;;;14.70;99.90;;;;;;5052811;28;20007;-85
2023/07/26 09:36:24;;;;;;;;;;;15.30;99.90;;;;;;5035094;28;19912;-86
2023/07/26 09:38:50;;;;;;;;;;;15.90;99.90;;;;;;5054079;28;19916;-86
2023/07/26 09:41:25;;;;;;;;;;;15.80;99.90;;;;;;5052265;28;19923;-86
2023/07/26 09:43:51;;;;;;;;;;;15.50;99.90;;;;;;5069066;28;20555;-85
2023/07/26 09:46:17;;;;;;;;;;;15.60;99.90;;;;;;5053159;28;19944;-86
2023/07/26 09:48:55;;;;;;;;;;;15.40;99.90;;;;;;5054128;28;19952;-85
2023/07/26 09:51:21;;;;;;;;;;;15.60;99.90;;;;;;5086002;28;19916;-85
2023/07/26 09:53:48;;;;;;;;;;;15.50;99.90;;;;;;5052262;28;19905;-85
2023/07/26 09:56:13;;;;;;;;;;;15.40;99.90;;;;;;5052151;28;19974;-85
2023/07/26 09:58:41;;;;;;;;;;;15.30;99.90;;;;;;5052036;28;19917;-86
2023/07/26 10:01:07;;;;;;;;;;;15.20;99.90;;;;;;5069124;28;19909;-85
2023/07/26 10:03:33;;;;;;;;;;;14.80;99.90;;;;;;5036128;28;20381;-85
2023/07/26 10:05:59;;;;;;;;;;;14.70;99.90;;;;;;5035670;28;20442;-86
2023/07/26 10:08:26;;;;;;;;;;;15.40;99.90;;;;;;5035345;28;19909;-86
2023/07/26 10:10:52;;;;;;;;;;;16.60;99.90;;;;;;5035942;28;19935;-87
2023/07/26 10:13:18;;;;;;;;;;;17.20;99.90;;;;;;5036208;28;19909;-84
2023/07/26 10:15:47;;;;;;;;;;;17.60;99.90;;;;;;5052431;28;19909;-84
2023/07/26 10:18:15;;;;;;;;;;;17.70;99.90;;;;;;5056534;28;19917;-86
2023/07/26 10:20:41;;;;;;;;;;;17.40;99.90;;;;;;5065106;28;20259;-87
2023/07/26 10:23:09;;;;;;;;;;;17.40;99.90;;;;;;5057818;28;19913;-87
2023/07/26 10:25:35;;;;;;;;;;;17.00;99.90;;;;;;5056935;28;19909;-87
2023/07/26 10:28:01;;;;;;;;;;;16.90;99.90;;;;;;5058132;28;19916;-87
2023/07/26 10:30:27;;;;;;;;;;;16.20;99.90;;;;;;5055587;28;19968;-87
2023/07/26 10:32:53;;;;;;;;;;;15.80;99.90;;;;;;5039218;28;19947;-87
2023/07/26 10:35:29;;;;;;;;;;;15.20;99.90;;;;;;5055638;28;20359;-86
2023/07/26 10:37:59;;;;;;;;;;;14.80;99.90;;;;;;5055315;28;19966;-86
2023/07/26 10:40:28;;;;;;;;;;;14.60;99.90;;;;;;5056669;28;19955;-86
2023/07/26 10:42:54;;;;;;;;;;;14.30;99.90;;;;;;5055198;28;19915;-86
2023/07/26 10:48:43;;;;;;;;;;;13.70;99.90;;;;;;5083367;28;19919;-86
2023/07/26 10:51:25;;;;;;;;;;;13.30;99.90;;;;;;5048517;28;20383;-84
2023/07/26 10:53:53;;;;;;;;;;;13.00;99.90;;;;;;5054315;28;19923;-85
2023/07/26 10:56:19;;;;;;;;;;;12.80;99.90;;;;;;5054403;28;19947;-85
2023/07/26 10:58:48;;;;;;;;;;;12.80;99.90;;;;;;5037319;28;19967;-85
2023/07/26 11:01:28;;;;;;;;;;;12.90;99.90;;;;;;5054101;28;19909;-85
2023/07/26 11:03:57;;;;;;;;;;;13.00;99.90;;;;;;5053982;28;19908;-85
2023/07/26 11:06:43;;;;;;;;;;;13.00;99.90;;;;;;5037238;28;19905;-85
2023/07/26 11:09:18;;;;;;;;;;;13.00;99.90;;;;;;5064338;28;19909;-84
2023/07/26 11:11:59;;;;;;;;;;;13.10;99.90;;;;;;5037300;28;19909;-85
2023/07/26 11:14:26;;;;;;;;;;;13.10;99.90;;;;;;5037655;28;19909;-85
2023/07/26 11:16:52;;;;;;;;;;;13.00;99.90;;;;;;5053383;28;19943;-85
2023/07/26 11:19:18;;;;;;;;;;;13.00;99.90;;;;;;5037509;28;19916;-86
2023/07/26 11:22:04;;;;;;;;;;;13.00;99.90;;;;;;5037449;28;19908;-86
2023/07/26 11:24:29;;;;;;;;;;;12.90;99.90;;;;;;5036559;28;19955;-85
2023/07/26 11:26:55;;;;;;;;;;;12.80;99.90;;;;;;5053630;28;20394;-86
2023/07/26 11:29:20;;;;;;;;;;;12.60;99.90;;;;;;5037504;28;19913;-87
2023/07/26 11:31:47;;;;;;;;;;;12.20;99.90;;;;;;5070992;28;19905;-87
2023/07/26 11:34:17;;;;;;;;;;;12.00;99.90;;;;;;5054427;28;19909;-86
2023/07/26 11:36:43;;;;;;;;;;;12.20;99.90;;;;;;5053908;28;20553;-86
2023/07/26 11:39:22;;;;;;;;;;;12.40;99.90;;;;;;5053987;28;19916;-86
2023/07/26 11:41:49;;;;;;;;;;;12.80;99.90;;;;;;5070626;28;20237;-87
2023/07/26 11:44:27;;;;;;;;;;;13.30;99.90;;;;;;5054213;28;19932;-86
2023/07/26 11:46:53;;;;;;;;;;;13.80;99.90;;;;;;5053738;28;19908;-87
2023/07/26 11:49:20;;;;;;;;;;;14.30;99.90;;;;;;5037410;28;19919;-84
2023/07/26 11:51:47;;;;;;;;;;;14.70;99.90;;;;;;5053172;28;20352;-87
2023/07/26 11:54:12;;;;;;;;;;;15.00;99.90;;;;;;5037285;28;19952;-86
2023/07/26 11:56:38;;;;;;;;;;;15.30;99.90;;;;;;5036891;28;20379;-87
2023/07/26 11:59:04;;;;;;;;;;;15.40;99.90;;;;;;5053092;28;19936;-87
2023/07/26 12:01:30;;;;;;;;;;;15.40;99.90;;;;;;5053800;28;19908;-86
2023/07/26 12:03:56;;;;;;;;;;;15.10;99.90;;;;;;5036954;28;20380;-87
2023/07/26 12:06:29;;;;;;;;;;;14.70;99.90;;;;;;5053459;28;19909;-86
2023/07/26 12:08:59;;;;;;;;;;;14.20;99.90;;;;;;5053399;28;19915;-86
2023/07/26 12:11:25;;;;;;;;;;;13.60;99.90;;;;;;5036606;28;20409;-86
2023/07/26 12:13:55;;;;;;;;;;;13.30;99.90;;;;;;5036010;28;19916;-85
2023/07/26 12:16:26;;;;;;;;;;;12.80;99.90;;;;;;5035555;28;19912;-86
2023/07/26 12:18:53;;;;;;;;;;;12.40;99.90;;;;;;5052846;28;19916;-85
2023/07/26 12:21:22;;;;;;;;;;;12.20;99.90;;;;;;5052972;28;20390;-86
2023/07/26 12:23:49;;;;;;;;;;;12.30;99.90;;;;;;5052634;28;20272;-86
2023/07/26 12:26:15;;;;;;;;;;;12.50;99.90;;;;;;5036049;28;19915;-86
2023/07/26 12:28:42;;;;;;;;;;;12.70;99.90;;;;;;5053003;28;19917;-86
2023/07/26 12:31:07;;;;;;;;;;;13.00;99.90;;;;;;5053200;28;20516;-86
2023/07/26 12:33:35;;;;;;;;;;;13.30;99.90;;;;;;5052865;28;19948;-85
2023/07/26 12:36:00;;;;;;;;;;;13.20;99.90;;;;;;5035856;28;20356;-86
2023/07/26 12:38:26;;;;;;;;;;;13.20;99.90;;;;;;5052630;28;19913;-86
2023/07/26 12:40:52;;;;;;;;;;;13.50;99.90;;;;;;5035705;28;19923;-86
2023/07/26 12:43:33;;;;;;;;;;;14.00;99.90;;;;;;5052909;28;20372;-86
2023/07/26 12:46:00;;;;;;;;;;;14.80;99.90;;;;;;5035630;28;19984;-86
2023/07/26 12:48:26;;;;;;;;;;;15.60;99.90;;;;;;5052393;28;19909;-86
2023/07/26 12:50:53;;;;;;;;;;;16.10;99.90;;;;;;5052398;28;19909;-84
2023/07/26 12:53:26;;;;;;;;;;;16.60;99.90;;;;;;5052736;28;19935;-84
2023/07/26 12:55:52;;;;;;;;;;;17.00;99.90;;;;;;5052154;28;20448;-86
2023/07/26 12:58:18;;;;;;;;;;;17.00;99.90;;;;;;5052567;28;19975;-87
2023/07/26 13:00:44;;;;;;;;;;;17.40;99.90;;;;;;5052734;28;20360;-84
2023/07/26 13:03:09;;;;;;;;;;;17.70;99.90;;;;;;5036751;28;20287;-84
2023/07/26 13:05:35;;;;;;;;;;;18.20;99.90;;;;;;5035862;28;19965;-85
2023/07/26 13:08:01;;;;;;;;;;;18.50;99.90;;;;;;5051965;28;20856;-86
2023/07/26 13:10:27;;;;;;;;;;;18.90;99.90;;;;;;5052152;28;20354;-86
2023/07/26 13:12:53;;;;;;;;;;;19.50;99.90;;;;;;5052128;28;20007;-86
2023/07/26 13:15:19;;;;;;;;;;;19.40;99.90;;;;;;5051782;28;20007;-86
2023/07/26 13:17:45;;;;;;;;;;;19.00;99.90;;;;;;5035725;28;20378;-85
2023/07/26 13:20:11;;;;;;;;;;;19.50;99.90;;;;;;5034562;28;19960;-86
2023/07/26 13:22:37;;;;;;;;;;;19.70;99.90;;;;;;5075085;28;19908;-86
2023/07/26 13:25:02;;;;;;;;;;;19.00;99.90;;;;;;5087139;28;19909;-85
2023/07/26 13:27:28;;;;;;;;;;;18.60;99.90;;;;;;5052550;28;19974;-85
2023/07/26 13:29:53;;;;;;;;;;;19.10;99.90;;;;;;5036579;28;19991;-86
2023/07/26 13:32:21;;;;;;;;;;;19.40;99.90;;;;;;5035891;28;20270;-86
2023/07/26 13:34:46;;;;;;;;;;;19.40;99.90;;;;;;5052068;28;19913;-86
2023/07/26 13:37:12;;;;;;;;;;;18.60;99.90;;;;;;5036068;28;19966;-85
2023/07/26 13:39:37;;;;;;;;;;;18.20;99.90;;;;;;5053468;28;19908;-86
2023/07/26 13:42:09;;;;;;;;;;;18.30;99.90;;;;;;5052053;28;20284;-85
2023/07/26 13:44:35;;;;;;;;;;;18.30;99.90;;;;;;5035332;28;20356;-85
2023/07/26 13:47:00;;;;;;;;;;;18.70;99.90;;;;;;5060762;28;19916;-85
2023/07/26 13:49:26;;;;;;;;;;;18.70;99.90;;;;;;5072499;28;19961;-85
2023/07/26 13:51:51;;;;;;;;;;;19.00;99.90;;;;;;5072968;28;19913;-86
2023/07/26 13:54:17;;;;;;;;;;;18.80;99.90;;;;;;5039418;28;19909;-86
2023/07/26 13:56:43;;;;;;;;;;;18.70;99.90;;;;;;5057303;28;19949;-85
2023/07/26 13:59:08;;;;;;;;;;;19.10;99.90;;;;;;5039420;28;19998;-86
2023/07/26 14:01:34;;;;;;;;;;;19.10;99.90;;;;;;5057649;28;19912;-86
2023/07/26 14:04:00;;;;;;;;;;;18.50;99.90;;;;;;5055914;28;20003;-86
2023/07/26 14:06:27;;;;;;;;;;;17.90;99.90;;;;;;5039454;28;19912;-85
2023/07/26 14:08:53;;;;;;;;;;;17.20;99.90;;;;;;5039500;28;19966;-85
2023/07/26 14:11:18;;;;;;;;;;;16.00;99.90;;;;;;5055858;28;20318;-86
2023/07/26 14:13:44;;;;;;;;;;;15.10;99.90;;;;;;5039012;28;19908;-86
2023/07/26 14:16:37;;;;;;;;;;;14.30;99.90;;;;;;5055419;28;19909;-85
2023/07/26 14:19:03;;;;;;;;;;;13.60;99.90;;;;;;5054188;28;19970;-86
2023/07/26 14:21:28;;;;;;;;;;;13.30;99.90;;;;;;5038729;28;19916;-85
2023/07/26 14:23:54;;;;;;;;;;;13.10;99.90;;;;;;5055386;28;19916;-85
2023/07/26 14:26:20;;;;;;;;;;;13.30;99.90;;;;;;5038608;28;19925;-86
2023/07/26 14:28:45;;;;;;;;;;;13.40;99.90;;;;;;5055457;28;20499;-85